Terminal Aerodrome Forecast
Issued by NWS Quad Cities IA IL

Home | Current Version | Previous Version | Text Only | Print | Product List | Glossary On
Versions: 1 2 3 4 5 6 7 8 9 10 11 12 13 14 15 16 17 18 19 20 21 22 23 24 25
875
FTUS43 KDVN 301734
TAFDBQ
TAF
KDBQ 301734Z 3018/3118 03006KT P6SM VCSH SCT018 SCT024 BKN035
      TEMPO 3019/3022 6SM -SHRA BR BKN022
     FM310200 08003KT P6SM SCT024 BKN035
     FM310900 05003KT 3SM BR SCT005
     FM311500 08004KT 6SM BR BKN035=

USA.gov is the U.S. government's official web portal to all federal, state and local government web resources and services.